Time;durP1;ratioP1;P1;durP2;ratioP2;P2;SDS_P1;SDS_P2;PMS_P1;PMS_P2;Temp;Humidity;BMP_temperature;BMP_pressure;BME280_temperature;BME280_humidity;BME280_pressure;Samples;Min_cycle;Max_cycle;Signal;HPM_P1;HPM_P2
2021/06/12 00:01:24;;;;;;;26.48;11.83;;;;;;;13.94;100.00;100473.48;1652167;85;21693;-89
2021/06/12 00:03:50;;;;;;;28.20;12.25;;;;;;;13.92;100.00;100468.37;1655078;86;20924;-89
2021/06/12 00:06:16;;;;;;;20.23;9.95;;;;;;;13.90;100.00;100467.84;1654715;86;20968;-90
2021/06/12 00:08:42;;;;;;;21.05;10.08;;;;;;;13.88;100.00;100468.66;1652032;86;21090;-90
2021/06/12 00:11:08;;;;;;;25.35;10.25;;;;;;;13.86;100.00;100470.86;1652336;86;21114;-89
2021/06/12 00:13:34;;;;;;;22.32;10.53;;;;;;;13.82;100.00;100471.98;1653341;86;20981;-91
2021/06/12 00:16:00;;;;;;;24.75;10.58;;;;;;;13.83;100.00;100472.23;1653477;86;20999;-89
2021/06/12 00:18:26;;;;;;;24.85;10.93;;;;;;;13.84;100.00;100467.07;1653392;86;20884;-89
2021/06/12 00:20:56;;;;;;;28.42;10.68;;;;;;;13.88;100.00;100461.08;1652830;86;20977;-90
2021/06/12 00:23:22;;;;;;;28.52;11.03;;;;;;;13.92;100.00;100464.30;1654858;86;21979;-90
2021/06/12 00:25:48;;;;;;;25.48;10.80;;;;;;;13.88;100.00;100464.59;1652857;86;20980;-90
2021/06/12 00:28:14;;;;;;;27.75;10.23;;;;;;;13.82;100.00;100469.28;1654877;86;20909;-89
2021/06/12 00:30:40;;;;;;;21.27;10.23;;;;;;;13.79;100.00;100471.17;1652553;85;21491;-89
2021/06/12 00:33:06;;;;;;;21.55;9.33;;;;;;;13.76;100.00;100469.03;1654444;86;21563;-89
2021/06/12 00:35:33;;;;;;;18.52;9.08;;;;;;;13.74;100.00;100468.53;1653913;85;21178;-89
2021/06/12 00:37:59;;;;;;;17.50;8.50;;;;;;;13.76;100.00;100469.03;1658764;85;21040;-90
2021/06/12 00:40:25;;;;;;;20.37;8.55;;;;;;;13.71;100.00;100467.74;1656013;86;21083;-90
2021/06/12 00:42:52;;;;;;;23.73;10.03;;;;;;;13.66;100.00;100462.36;1641127;86;21035;-91
2021/06/12 00:45:22;;;;;;;24.12;9.40;;;;;;;13.62;100.00;100464.03;1655560;86;21036;-89
2021/06/12 00:47:51;;;;;;;24.30;9.80;;;;;;;13.60;100.00;100454.82;1653003;85;21140;-91
2021/06/12 00:50:21;;;;;;;25.45;9.55;;;;;;;13.59;100.00;100456.48;1651929;86;21520;-89
2021/06/12 00:52:47;;;;;;;25.12;10.90;;;;;;;13.59;100.00;100451.86;1650901;86;21109;-90
2021/06/12 00:55:15;;;;;;;21.52;10.48;;;;;;;13.62;100.00;100447.78;1655162;85;21007;-90
2021/06/12 00:57:43;;;;;;;29.37;11.18;;;;;;;13.66;100.00;100448.83;1655440;85;21027;-90
2021/06/12 01:00:14;;;;;;;26.82;10.03;;;;;;;13.59;100.00;100453.77;1652356;86;21121;-90
2021/06/12 01:02:40;;;;;;;23.05;10.32;;;;;;;13.54;100.00;100451.89;1652171;85;21563;-90
2021/06/12 01:05:10;;;;;;;29.02;11.08;;;;;;;13.55;100.00;100458.92;1650759;86;21130;-90
2021/06/12 01:07:37;;;;;;;52.10;12.80;;;;;;;13.61;100.00;100461.84;1651032;86;21091;-90
2021/06/12 01:10:07;;;;;;;58.95;12.75;;;;;;;13.60;100.00;100454.02;1650946;87;21064;-90
2021/06/12 01:12:44;;;;;;;105.32;13.70;;;;;;;13.61;100.00;100452.37;1651074;85;21277;-90
2021/06/12 01:15:11;;;;;;;93.00;12.82;;;;;;;13.57;100.00;100460.00;1656882;85;21008;-90
2021/06/12 01:17:59;;;;;;;68.67;12.40;;;;;;;13.59;100.00;100465.95;1651340;85;21135;-90
2021/06/12 01:20:50;;;;;;;48.60;10.75;;;;;;;13.56;100.00;100461.08;1651276;85;21008;-89
2021/06/12 01:23:49;;;;;;;31.50;10.65;;;;;;;13.52;100.00;100459.48;1654385;86;21012;-91
2021/06/12 01:26:41;;;;;;;64.55;11.08;;;;;;;13.49;100.00;100460.05;1637511;87;21588;-90
2021/06/12 01:29:25;;;;;;;37.65;10.68;;;;;;;13.48;100.00;100463.05;1537740;92;21093;-90
2021/06/12 01:31:52;;;;;;;53.10;10.88;;;;;;;13.50;100.00;100464.91;1492867;94;21650;-89
2021/06/12 01:34:22;;;;;;;40.20;10.72;;;;;;;13.51;100.00;100466.55;1492676;96;21189;-89
2021/06/12 01:36:49;;;;;;;44.30;9.78;;;;;;;13.52;100.00;100454.06;1501040;95;21076;-90
2021/06/12 01:39:21;;;;;;;46.30;10.13;;;;;;;13.50;100.00;100458.98;1485822;95;22027;-90
2021/06/12 01:41:48;;;;;;;48.63;11.18;;;;;;;13.46;100.00;100457.11;1506569;95;21005;-90
2021/06/12 01:44:16;;;;;;;39.38;9.05;;;;;;;13.39;100.00;100458.78;1506770;95;21077;-90
2021/06/12 01:46:42;;;;;;;48.38;10.65;;;;;;;13.38;100.00;100459.86;1506650;95;21069;-90
2021/06/12 01:49:08;;;;;;;31.20;9.88;;;;;;;13.37;100.00;100460.41;1506901;95;21233;-90
2021/06/12 01:51:36;;;;;;;53.02;9.95;;;;;;;13.40;100.00;100459.04;1506796;95;21107;-89
2021/06/12 01:54:03;;;;;;;32.70;10.55;;;;;;;13.45;100.00;100457.66;1506664;94;21703;-88
2021/06/12 01:56:30;;;;;;;23.73;10.20;;;;;;;13.50;100.00;100462.20;1507003;95;21602;-90
2021/06/12 01:58:58;;;;;;;21.82;9.90;;;;;;;13.48;100.00;100453.58;1506704;95;21708;-89
2021/06/12 02:01:33;;;;;;;24.65;10.10;;;;;;;13.50;100.00;100454.09;1506861;95;21949;-90
2021/06/12 02:04:01;;;;;;;24.05;10.25;;;;;;;13.53;100.00;100456.23;1505606;95;21651;-90
2021/06/12 02:06:29;;;;;;;20.50;9.10;;;;;;;13.53;100.00;100459.77;1554200;89;21530;-90
2021/06/12 02:08:57;;;;;;;26.50;9.40;;;;;;;13.51;100.00;100460.58;1585863;90;21056;-91
2021/06/12 02:11:25;;;;;;;20.17;8.88;;;;;;;13.52;100.00;100466.80;1585803;89;21083;-92
2021/06/12 02:13:52;;;;;;;34.75;9.63;;;;;;;13.54;100.00;100458.66;1586127;90;21158;-91
2021/06/12 02:16:23;;;;;;;21.25;9.80;;;;;;;13.56;100.00;100459.72;1585825;90;21098;-90
2021/06/12 02:18:51;;;;;;;21.85;10.10;;;;;;;13.63;100.00;100461.02;1586180;90;21044;-91
2021/06/12 02:21:20;;;;;;;22.27;9.33;;;;;;;13.68;100.00;100462.06;1586254;90;21464;-90
2021/06/12 02:23:52;;;;;;;18.55;8.78;;;;;;;13.71;100.00;100469.09;1586217;90;21032;-91
2021/06/12 02:26:22;;;;;;;35.13;8.08;;;;;;;13.77;100.00;100475.28;1586104;90;21064;-91
2021/06/12 02:28:50;;;;;;;62.20;9.10;;;;;;;13.84;100.00;100471.69;1633316;86;21531;-91
2021/06/12 02:31:30;;;;;;;55.38;8.75;;;;;;;13.96;100.00;100475.38;1653038;86;21001;-91
2021/06/12 02:33:56;;;;;;;51.13;8.28;;;;;;;14.10;100.00;100476.33;1653950;86;21539;-91
2021/06/12 02:36:23;;;;;;;45.90;8.13;;;;;;;14.24;100.00;100478.63;1654539;85;21561;-91
2021/06/12 02:38:49;;;;;;;29.70;7.22;;;;;;;14.38;100.00;100481.44;1660318;85;20992;-91
2021/06/12 02:41:16;;;;;;;32.00;7.72;;;;;;;14.54;100.00;100478.86;1657629;85;21941;-92
2021/06/12 02:43:42;;;;;;;43.00;9.80;;;;;;;14.70;100.00;100479.48;1656641;86;21079;-91
2021/06/12 02:46:13;;;;;;;61.58;16.62;;;;;;;14.81;100.00;100482.08;1655857;85;21421;-91
2021/06/12 02:48:43;;;;;;;65.03;29.75;;;;;;;15.01;100.00;100480.45;1656608;85;21059;-91
2021/06/12 02:51:10;;;;;;;74.67;34.88;;;;;;;15.27;100.00;100467.89;1655971;85;21091;-91
2021/06/12 02:53:42;;;;;;;80.20;33.63;;;;;;;15.27;100.00;100467.89;1656704;86;21163;-91
2021/06/12 02:56:09;;;;;;;74.42;32.83;;;;;;;15.63;100.00;100484.44;1655517;86;21080;-93
2021/06/12 02:58:37;;;;;;;62.62;31.17;;;;;;;15.73;100.00;100480.77;1656601;85;21524;-92
2021/06/12 03:01:04;;;;;;;65.37;28.47;;;;;;;15.73;100.00;100480.77;1655881;85;21024;-92
2021/06/12 03:03:33;;;;;;;55.03;24.35;;;;;;;15.88;100.00;100483.22;1656396;86;21004;-92
2021/06/12 03:06:00;;;;;;;54.05;23.10;;;;;;;16.01;100.00;100485.73;1654217;86;21102;-92
2021/06/12 03:08:45;;;;;;;48.65;22.10;;;;;;;16.17;100.00;100497.14;1650672;86;21095;-91
2021/06/12 03:11:14;;;;;;;42.17;18.85;;;;;;;16.38;100.00;100486.69;1651503;86;21020;-91
2021/06/12 03:13:43;;;;;;;53.33;15.90;;;;;;;16.65;100.00;100488.07;1652123;86;21043;-90
2021/06/12 03:16:13;;;;;;;82.08;14.75;;;;;;;16.93;100.00;100488.06;1655903;85;21067;-91
2021/06/12 03:18:44;;;;;;;69.58;13.15;;;;;;;17.20;100.00;100483.11;1655418;86;21180;-92
2021/06/12 03:21:11;;;;;;;84.05;12.95;;;;;;;17.42;100.00;100485.07;1651191;86;21023;-91
2021/06/12 03:23:38;;;;;;;129.45;12.70;;;;;;;17.61;100.00;100484.88;1651687;86;21132;-92
2021/06/12 03:26:11;;;;;;;128.80;10.80;;;;;;;17.75;100.00;100492.45;1664164;85;21001;-91
2021/06/12 03:28:39;;;;;;;106.78;11.48;;;;;;;17.91;100.00;100492.35;1657319;86;21075;-89
2021/06/12 03:31:06;;;;;;;114.28;10.13;;;;;;;18.06;100.00;100494.41;1655971;85;21096;-93
2021/06/12 03:33:34;;;;;;;60.48;9.10;;;;;;;18.27;100.00;100491.98;1655742;86;21012;-93
2021/06/12 03:36:01;;;;;;;153.00;9.35;;;;;;;18.45;100.00;100495.02;1657031;85;21016;-92
2021/06/12 03:38:29;;;;;;;111.17;9.83;;;;;;;18.53;100.00;100502.98;1639253;87;21005;-92
2021/06/12 03:40:57;;;;;;;71.72;8.95;;;;;;;18.54;100.00;100497.78;1651044;86;21028;-92
2021/06/12 03:43:24;;;;;;;65.28;8.70;;;;;;;18.56;100.00;100494.98;1650895;85;21156;-93
2021/06/12 03:45:54;;;;;;;41.40;8.13;;;;;;;18.72;100.00;100498.64;1651333;86;21063;-93
2021/06/12 03:48:23;;;;;;;56.37;8.10;;;;;;;18.80;100.00;100502.00;1652928;86;21032;-92
2021/06/12 03:50:55;;;;;;;48.45;7.50;;;;;;;18.92;100.00;100509.02;1651930;86;21036;-93
2021/06/12 03:57:10;;;;;;;26.25;7.62;;;;;;;19.22;100.00;100513.31;1651081;86;21107;-92
2021/06/12 03:59:36;;;;;;;39.88;7.83;;;;;;;19.36;100.00;100514.55;1651187;86;21105;-92
2021/06/12 04:02:03;;;;;;;22.93;8.03;;;;;;;19.47;100.00;100516.64;1654252;86;20976;-91
2021/06/12 04:04:29;;;;;;;35.90;8.33;;;;;;;19.63;100.00;100514.20;1650649;86;21060;-91
2021/06/12 04:06:55;;;;;;;43.48;7.50;;;;;;;19.91;100.00;100511.14;1652597;86;21112;-90
2021/06/12 04:09:20;;;;;;;24.67;8.23;;;;;;;20.23;100.00;100515.25;1653339;86;21614;-91
2021/06/12 04:11:46;;;;;;;25.57;7.90;;;;;;;20.45;100.00;100515.59;1639556;87;20865;-92
2021/06/12 04:14:12;;;;;;;22.67;7.62;;;;;;;20.60;100.00;100517.80;1652293;86;20905;-92
2021/06/12 04:16:38;;;;;;;23.18;7.97;;;;;;;20.71;100.00;100518.25;1638983;86;20966;-90
2021/06/12 04:19:04;;;;;;;31.95;7.72;;;;;;;20.78;100.00;100521.83;1653621;86;21016;-90
2021/06/12 04:21:30;;;;;;;23.77;7.35;;;;;;;20.95;100.00;100527.78;1651702;86;21350;-90
2021/06/12 04:23:56;;;;;;;36.65;7.87;;;;;;;21.17;100.00;100530.78;1651091;87;20976;-90
2021/06/12 04:26:22;;;;;;;33.18;8.40;;;;;;;21.38;100.00;100530.24;1639100;87;20953;-89
2021/06/12 04:28:48;;;;;;;18.45;8.70;;;;;;;21.53;100.00;100526.92;1653229;86;20909;-91
2021/06/12 04:31:14;;;;;;;14.93;8.45;;;;;;;21.83;100.00;100529.56;1650987;86;20964;-91
2021/06/12 04:33:40;;;;;;;21.93;9.05;;;;;;;22.01;100.00;100537.05;1653596;86;22010;-91
2021/06/12 04:36:06;;;;;;;18.57;9.38;;;;;;;22.04;100.00;100526.77;1651435;87;20905;-90
2021/06/12 04:38:35;;;;;;;20.97;10.45;;;;;;;21.97;100.00;100526.50;1651787;85;21031;-93
2021/06/12 04:41:01;;;;;;;22.52;10.68;;;;;;;22.01;100.00;100534.30;1652148;86;21177;-90
2021/06/12 04:43:27;;;;;;;18.10;9.98;;;;;;;22.23;100.00;100531.17;1642534;86;21000;-92
2021/06/12 04:45:53;;;;;;;16.82;9.60;;;;;;;22.35;100.00;100530.97;1642321;86;20971;-89
2021/06/12 04:48:19;;;;;;;16.17;9.73;;;;;;;22.33;100.00;100525.04;1652142;86;20884;-89
2021/06/12 04:50:51;;;;;;;15.00;8.90;;;;;;;22.42;100.00;100530.65;1655461;86;21629;-90
2021/06/12 04:53:17;;;;;;;18.00;9.05;;;;;;;22.66;100.00;100535.94;1649694;85;21083;-89
2021/06/12 04:55:43;;;;;;;14.73;9.08;;;;;;;23.05;100.00;100535.02;1651188;87;21004;-89
2021/06/12 04:58:12;;;;;;;17.85;9.78;;;;;;;23.39;100.00;100528.79;1651366;87;21114;-89
2021/06/12 05:00:39;;;;;;;16.25;8.73;;;;;;;23.83;100.00;100530.27;1651049;85;21586;-88
2021/06/12 05:03:06;;;;;;;13.00;8.13;;;;;;;24.65;100.00;100530.46;1639790;87;21551;-88
2021/06/12 05:05:33;;;;;;;11.97;7.55;;;;;;;26.04;100.00;100527.75;1662256;86;21504;-88
2021/06/12 05:07:59;;;;;;;12.45;7.78;;;;;;;27.22;100.00;100533.04;1651454;86;21087;-88
2021/06/12 05:10:26;;;;;;;10.53;7.20;;;;;;;27.82;100.00;100522.72;1651669;87;21314;-87
2021/06/12 05:12:52;;;;;;;10.10;6.53;;;;;;;28.45;100.00;100534.86;1651235;86;21009;-88
2021/06/12 05:15:20;;;;;;;18.45;7.37;;;;;;;28.57;100.00;100528.22;1651367;86;21173;-88
2021/06/12 05:17:48;;;;;;;11.15;6.53;;;;;;;29.20;100.00;100530.43;1651077;87;21024;-88
2021/06/12 05:20:14;;;;;;;8.48;5.95;;;;;;;30.02;100.00;100525.19;1639804;87;21060;-88
2021/06/12 05:22:40;;;;;;;9.15;5.55;;;;;;;30.94;100.00;100522.84;1651581;86;21165;-89
2021/06/12 05:25:06;;;;;;;10.20;5.28;;;;;;;31.69;100.00;100529.58;1651430;86;20897;-89
2021/06/12 05:27:32;;;;;;;9.53;5.28;;;;;;;32.63;100.00;100526.98;1651394;86;21509;-88
2021/06/12 05:29:58;;;;;;;6.37;4.40;;;;;;;33.11;95.44;100520.52;1651573;86;21695;-89
2021/06/12 05:32:24;;;;;;;6.83;4.00;;;;;;;33.17;82.57;100525.84;1651595;86;21555;-89
2021/06/12 05:34:50;;;;;;;9.13;3.85;;;;;;;33.29;85.70;100528.08;1651443;86;21177;-90
2021/06/12 05:37:16;;;;;;;5.47;2.92;;;;;;;33.85;82.18;100525.77;1638782;87;21645;-89
2021/06/12 05:39:51;;;;;;;4.20;2.98;;;;;;;33.80;70.58;100528.28;1649088;87;20924;-91
2021/06/12 05:42:16;;;;;;;4.30;3.15;;;;;;;33.95;71.82;100533.84;1653787;86;21298;-92
2021/06/12 05:44:42;;;;;;;4.83;2.60;;;;;;;34.58;66.97;100525.67;1650610;86;20925;-86
2021/06/12 05:47:08;;;;;;;4.80;2.85;;;;;;;35.12;62.40;100518.30;1661202;86;21104;-87
2021/06/12 05:49:34;;;;;;;3.20;2.80;;;;;;;35.78;61.54;100518.73;1641022;85;21019;-86
2021/06/12 05:52:00;;;;;;;5.95;2.83;;;;;;;36.47;54.51;100519.30;1605327;86;21076;-86
2021/06/12 05:54:26;;;;;;;4.28;3.42;;;;;;;36.51;52.36;100529.84;1648466;85;21715;-86
2021/06/12 05:56:54;;;;;;;4.45;2.90;;;;;;;36.25;52.56;100527.48;1662429;85;20921;-89
2021/06/12 05:59:20;;;;;;;4.22;2.40;;;;;;;36.40;52.43;100525.90;1650716;86;20954;-86
2021/06/12 06:01:45;;;;;;;5.10;3.00;;;;;;;36.25;48.02;100524.68;1658062;86;20892;-86
2021/06/12 06:04:11;;;;;;;4.30;2.50;;;;;;;36.06;51.45;100525.73;1657763;86;21063;-85
2021/06/12 06:06:37;;;;;;;4.80;2.50;;;;;;;35.93;49.79;100522.00;1666231;85;20909;-86
2021/06/12 06:09:03;;;;;;;6.75;2.30;;;;;;;35.42;47.30;100520.89;1669192;85;21654;-91
2021/06/12 06:11:29;;;;;;;4.03;2.62;;;;;;;34.74;48.98;100527.80;1672737;85;21064;-87
2021/06/12 06:14:01;;;;;;;3.02;2.62;;;;;;;34.44;49.64;100523.08;1646418;85;21038;-85
2021/06/12 06:16:27;;;;;;;4.05;2.90;;;;;;;34.17;53.23;100530.73;1631074;86;21056;-84
2021/06/12 06:18:53;;;;;;;4.47;2.80;;;;;;;34.66;53.26;100523.55;1627584;88;20976;-85
2021/06/12 06:21:19;;;;;;;4.80;3.10;;;;;;;35.46;51.62;100528.60;1628960;86;20844;-86
2021/06/12 06:23:46;;;;;;;4.95;3.05;;;;;;;36.11;49.41;100523.00;1639294;86;21048;-84
2021/06/12 06:26:12;;;;;;;4.55;3.10;;;;;;;36.90;47.54;100521.02;1645920;86;21060;-85
2021/06/12 06:28:38;;;;;;;6.83;3.58;;;;;;;36.90;45.36;100520.39;1651039;86;20909;-84
2021/06/12 06:31:04;;;;;;;4.58;3.52;;;;;;;37.07;44.96;100522.57;1641467;86;21068;-85
2021/06/12 06:33:30;;;;;;;4.28;3.52;;;;;;;37.55;46.17;100515.78;1645495;86;21362;-84
2021/06/12 06:35:56;;;;;;;4.67;3.65;;;;;;;38.07;45.05;100515.99;1645641;87;21013;-86
2021/06/12 06:38:22;;;;;;;5.75;3.42;;;;;;;38.04;41.41;100515.49;1655592;86;21637;-85
2021/06/12 06:40:48;;;;;;;2.40;2.20;;;;;;;37.54;39.82;100507.97;1662440;86;20992;-84
2021/06/12 06:43:15;;;;;;;3.83;2.50;;;;;;;36.43;40.85;100520.80;1662772;86;21071;-86
2021/06/12 06:45:42;;;;;;;5.65;2.42;;;;;;;36.11;44.55;100518.17;1662481;86;21095;-86
2021/06/12 06:48:12;;;;;;;3.70;1.35;;;;;;;36.68;45.23;100508.97;1662564;86;21079;-86
2021/06/12 06:50:38;;;;;;;4.30;1.70;;;;;;;37.34;38.71;100515.16;1637734;86;21001;-86
2021/06/12 06:53:04;;;;;;;3.55;2.10;;;;;;;37.39;38.50;100516.02;1648042;84;21729;-82
2021/06/12 06:55:30;;;;;;;2.75;1.95;;;;;;;38.41;38.45;100519.49;1651474;85;21031;-85
2021/06/12 06:57:56;;;;;;;4.00;1.90;;;;;;;38.41;38.45;100519.49;1666291;85;21067;-85
2021/06/12 07:00:25;;;;;;;2.77;2.00;;;;;;;38.99;36.78;100522.53;1663189;85;21085;-83
2021/06/12 07:02:54;;;;;;;3.45;2.50;;;;;;;39.59;35.30;100516.64;1655244;84;21673;-86
2021/06/12 07:05:20;;;;;;;3.83;2.42;;;;;;;40.20;34.83;100522.73;1672635;84;21043;-83
2021/06/12 07:07:47;;;;;;;3.22;2.85;;;;;;;40.43;35.91;100526.23;1677568;84;21520;-85
2021/06/12 07:10:13;;;;;;;2.83;2.45;;;;;;;40.82;34.79;100522.50;1656062;84;21082;-84
2021/06/12 07:12:39;;;;;;;4.15;2.75;;;;;;;41.42;32.65;100518.83;1658711;84;21106;-85
2021/06/12 07:15:08;;;;;;;4.10;2.62;;;;;;;40.81;33.11;100521.56;1641360;84;21055;-83
2021/06/12 07:17:33;;;;;;;2.75;2.47;;;;;;;39.82;32.19;100522.42;1657885;84;21059;-87
2021/06/12 07:20:00;;;;;;;2.47;2.20;;;;;;;38.57;33.66;100529.83;1674102;85;20959;-84
2021/06/12 07:22:27;;;;;;;4.20;2.90;;;;;;;37.38;35.38;100523.48;1662829;86;21505;-81
2021/06/12 07:24:55;;;;;;;6.78;2.75;;;;;;;36.23;36.00;100526.51;1675529;84;21082;-81
2021/06/12 07:27:21;;;;;;;3.80;2.60;;;;;;;35.87;37.01;100525.93;1659411;85;21043;-85
2021/06/12 07:29:48;;;;;;;2.75;2.20;;;;;;;36.00;39.14;100528.05;1680189;84;21079;-85
2021/06/12 07:32:13;;;;;;;4.03;2.67;;;;;;;35.97;38.43;100528.30;1679580;85;21024;-85
2021/06/12 07:34:39;;;;;;;6.83;2.47;;;;;;;35.75;37.47;100528.64;1679362;85;20925;-86
2021/06/12 07:37:05;;;;;;;4.00;2.75;;;;;;;35.64;39.79;100531.67;1670897;84;21853;-86
2021/06/12 07:39:32;;;;;;;3.20;2.37;;;;;;;35.90;40.14;100527.86;1649632;85;21031;-85
2021/06/12 07:41:58;;;;;;;3.12;2.65;;;;;;;35.97;38.69;100532.51;1670121;85;21091;-87
2021/06/12 07:44:24;;;;;;;4.45;3.05;;;;;;;35.60;38.37;100531.75;1673161;85;21012;-85
2021/06/12 07:46:50;;;;;;;4.22;2.60;;;;;;;34.98;40.07;100529.95;1644400;85;21556;-87
2021/06/12 07:49:16;;;;;;;3.70;2.90;;;;;;;34.63;40.73;100535.60;1653677;86;21169;-86
2021/06/12 07:51:43;;;;;;;3.45;2.67;;;;;;;34.85;41.24;100532.41;1635636;87;20902;-88
2021/06/12 07:54:09;;;;;;;3.45;2.40;;;;;;;35.36;41.20;100531.66;1654722;85;21588;-86
2021/06/12 07:56:35;;;;;;;3.67;2.58;;;;;;;35.69;40.14;100527.74;1638862;86;20896;-86
2021/06/12 07:59:01;;;;;;;3.60;2.30;;;;;;;35.97;38.10;100533.13;1628345;87;21543;-84
2021/06/12 08:01:27;;;;;;;5.40;2.95;;;;;;;35.61;39.33;100531.14;1624114;88;21092;-86
2021/06/12 08:03:53;;;;;;;5.00;2.60;;;;;;;34.85;38.90;100528.98;1624943;87;21067;-90
2021/06/12 08:06:20;;;;;;;3.52;2.60;;;;;;;34.08;40.68;100534.86;1627717;87;22090;-87
2021/06/12 08:08:46;;;;;;;5.67;2.90;;;;;;;34.47;44.59;100527.05;1629529;87;21047;-89
2021/06/12 08:11:12;;;;;;;6.35;2.83;;;;;;;35.71;42.12;100519.69;1615921;87;21039;-89
2021/06/12 08:13:51;;;;;;;6.60;3.17;;;;;;;36.49;38.57;100514.83;1630336;87;21583;-89
2021/06/12 08:16:17;;;;;;;6.62;2.40;;;;;;;36.26;39.51;100518.61;1629071;87;20968;-89
2021/06/12 08:18:43;;;;;;;6.90;2.67;;;;;;;36.88;37.68;100518.63;1629109;87;20996;-87
2021/06/12 08:21:09;;;;;;;4.05;2.55;;;;;;;37.03;38.63;100518.47;1629965;87;21573;-85
2021/06/12 08:23:36;;;;;;;3.83;2.45;;;;;;;37.75;37.99;100514.17;1615817;87;21000;-87
2021/06/12 08:26:03;;;;;;;4.28;2.60;;;;;;;38.63;35.49;100520.97;1630642;87;21975;-86
2021/06/12 08:28:29;;;;;;;3.45;2.55;;;;;;;38.46;36.11;100523.15;1629651;86;21499;-87
2021/06/12 08:30:56;;;;;;;5.25;2.30;;;;;;;38.23;34.63;100519.28;1629401;87;21235;-87
2021/06/12 08:33:21;;;;;;;2.08;1.90;;;;;;;38.05;34.68;100524.09;1629706;87;21077;-87
2021/06/12 08:35:48;;;;;;;3.55;2.30;;;;;;;37.36;35.89;100522.54;1627699;87;21011;-87
2021/06/12 08:41:54;;;;;;;5.72;2.33;;;;;;;37.85;36.00;100520.07;1625372;87;21055;-86
2021/06/12 08:44:23;;;;;;;2.98;2.10;;;;;;;37.13;35.97;100524.22;1625461;87;21440;-87
2021/06/12 08:46:50;;;;;;;2.87;2.50;;;;;;;37.32;37.86;100519.02;1633563;86;21044;-87
2021/06/12 08:49:17;;;;;;;4.55;2.60;;;;;;;37.94;36.54;100523.02;1660546;85;20965;-87
2021/06/12 08:51:44;;;;;;;3.35;2.22;;;;;;;38.42;34.58;100514.64;1649672;85;21959;-87
2021/06/12 08:54:17;;;;;;;3.12;2.12;;;;;;;39.03;34.35;100509.08;1656071;86;21098;-86
2021/06/12 08:56:45;;;;;;;6.22;2.25;;;;;;;39.88;33.60;100505.03;1657432;85;21067;-88
2021/06/12 08:59:11;;;;;;;2.42;2.22;;;;;;;40.28;33.03;100500.00;1646387;85;21508;-87
2021/06/12 09:01:37;;;;;;;2.90;1.92;;;;;;;40.54;32.56;100504.73;1644525;86;21016;-88
2021/06/12 09:04:03;;;;;;;2.25;2.05;;;;;;;40.75;31.98;100494.56;1640342;85;21096;-86
2021/06/12 09:06:31;;;;;;;2.20;2.00;;;;;;;40.89;30.00;100501.63;1642506;86;20980;-90
2021/06/12 09:08:58;;;;;;;3.67;2.12;;;;;;;40.79;30.06;100502.23;1650773;85;21579;-90
2021/06/12 09:11:25;;;;;;;4.87;2.20;;;;;;;40.11;29.45;100487.38;1647957;86;21015;-88
2021/06/12 09:13:58;;;;;;;4.25;2.40;;;;;;;39.01;31.03;100512.38;1649595;86;21125;-88
2021/06/12 09:16:43;;;;;;;2.62;2.10;;;;;;;38.08;32.34;100512.71;1649664;87;21422;-88
2021/06/12 09:19:14;;;;;;;2.92;2.00;;;;;;;37.61;33.49;100511.95;1643285;86;21063;-88
2021/06/12 09:21:48;;;;;;;4.83;2.62;;;;;;;36.99;34.28;100513.52;1655250;86;21042;-89
2021/06/12 09:24:45;;;;;;;2.67;2.30;;;;;;;36.39;35.34;100513.88;1656145;86;21180;-87
2021/06/12 09:27:17;;;;;;;2.40;2.00;;;;;;;36.73;35.59;100503.41;1629291;86;21103;-87
2021/06/12 09:29:51;;;;;;;;;;;;;;;37.38;34.36;100507.39;1630120;87;21100;-87
2021/06/12 09:32:29;;;;;;;4.62;2.15;;;;;;;37.85;34.75;100498.34;1640050;86;20603;-87
2021/06/12 09:35:07;;;;;;;4.33;2.30;;;;;;;38.05;33.34;100493.13;1635779;87;21036;-88
2021/06/12 09:37:35;;;;;;;2.95;2.30;;;;;;;37.86;34.13;100494.31;1606485;87;21610;-88
2021/06/12 09:40:14;;;;;;;5.95;2.40;;;;;;;37.18;36.11;100491.33;1638642;87;21072;-88
2021/06/12 09:42:54;;;;;;;2.77;2.22;;;;;;;36.58;35.87;100490.36;1624516;86;21879;-87
2021/06/12 09:45:41;;;;;;;4.17;2.55;;;;;;;35.92;37.04;100493.16;1601293;89;21638;-88
2021/06/12 09:48:17;;;;;;;2.58;2.35;;;;;;;35.40;36.47;100486.11;1601658;89;21602;-88
2021/06/12 09:50:47;;;;;;;2.50;1.98;;;;;;;35.22;37.05;100485.88;1601389;89;21136;-88
2021/06/12 09:53:20;;;;;;;3.67;2.10;;;;;;;34.70;37.83;100485.06;1601469;89;21043;-88
2021/06/12 09:55:47;;;;;;;3.33;2.00;;;;;;;34.16;37.46;100477.41;1600686;89;21104;-87
2021/06/12 09:58:14;;;;;;;2.42;1.90;;;;;;;33.72;38.84;100482.84;1610524;88;21539;-87
2021/06/12 10:00:44;;;;;;;3.25;2.10;;;;;;;33.42;38.30;100480.23;1600349;88;21109;-87
2021/06/12 10:03:27;;;;;;;5.83;2.00;;;;;;;33.06;42.08;100490.25;1608883;87;21690;-87
2021/06/12 10:06:21;;;;;;;2.90;2.30;;;;;;;32.66;42.35;100482.89;1497343;95;21107;-88
2021/06/12 10:08:51;;;;;;;4.78;2.55;;;;;;;32.07;42.75;100480.38;1547693;92;21605;-90
2021/06/12 10:11:22;;;;;;;7.40;3.17;;;;;;;31.53;47.03;100481.89;1553436;92;21262;-87
2021/06/12 10:13:49;;;;;;;6.75;2.65;;;;;;;30.90;50.22;100484.50;1552852;92;21039;-87
2021/06/12 10:16:16;;;;;;;5.33;2.92;;;;;;;30.54;55.10;100482.55;1553172;92;21207;-87
2021/06/12 10:18:44;;;;;;;4.35;3.00;;;;;;;30.45;55.27;100479.38;1523539;92;21108;-89
2021/06/12 10:21:15;;;;;;;4.53;2.55;;;;;;;30.42;57.50;100484.35;1523015;94;21146;-88
2021/06/12 10:23:44;;;;;;;4.60;2.35;;;;;;;30.60;58.38;100485.72;1523054;94;21099;-87
2021/06/12 10:26:14;;;;;;;2.30;2.08;;;;;;;30.98;56.80;100486.08;1523142;94;21181;-91
2021/06/12 10:28:40;;;;;;;3.40;2.10;;;;;;;31.44;53.22;100485.11;1522363;94;21619;-86
2021/06/12 10:31:10;;;;;;;5.50;2.60;;;;;;;31.95;51.39;100479.48;1515678;94;21174;-86
2021/06/12 10:33:43;;;;;;;3.95;2.50;;;;;;;32.44;50.09;100484.44;1521509;94;21871;-87
2021/06/12 10:36:17;;;;;;;5.75;2.30;;;;;;;32.99;47.05;100480.75;1483858;95;21147;-88
2021/06/12 10:38:45;;;;;;;4.25;2.40;;;;;;;33.17;47.64;100476.34;1458114;98;21090;-85
2021/06/12 10:41:49;;;;;;;5.87;2.77;;;;;;;33.54;47.15;100473.31;1443080;98;21549;-87
2021/06/12 10:44:21;;;;;;;5.10;2.90;;;;;;;33.86;46.18;100473.46;1428481;98;21216;-87
2021/06/12 10:46:47;;;;;;;5.00;2.42;;;;;;;34.16;45.90;100467.01;1436968;98;21308;-86
2021/06/12 10:49:27;;;;;;;4.47;2.33;;;;;;;34.19;44.29;100466.16;1432033;98;21203;-87
2021/06/12 10:51:53;;;;;;;3.22;2.37;;;;;;;33.91;43.60;100468.77;1436772;98;21117;-86
2021/06/12 10:54:24;;;;;;;4.58;2.40;;;;;;;33.83;45.71;100470.90;1455207;95;21621;-85
2021/06/12 10:56:59;;;;;;;4.33;2.83;;;;;;;34.00;44.10;100471.81;1489970;95;21149;-87
2021/06/12 10:59:46;;;;;;;3.50;2.85;;;;;;;33.85;43.70;100478.23;1473809;96;21673;-86
2021/06/12 11:05:03;;;;;;;6.05;3.33;;;;;;;33.16;45.42;100475.39;1447457;99;21120;-86
2021/06/12 11:07:33;;;;;;;4.90;2.70;;;;;;;32.92;44.29;100473.05;1447257;96;21126;-86
2021/06/12 11:10:14;;;;;;;5.95;3.15;;;;;;;32.56;45.19;100472.83;1458498;97;21151;-88
2021/06/12 11:12:47;;;;;;;5.97;3.27;;;;;;;32.11;44.43;100473.38;1482312;96;21184;-86
2021/06/12 11:15:19;;;;;;;;;;;;;;;31.76;45.32;100471.00;1479403;96;21103;-86
2021/06/12 11:17:45;;;;;;;4.28;3.20;;;;;;;31.58;47.40;100475.29;1460779;98;20211;-87
2021/06/12 11:20:16;;;;;;;4.97;3.50;;;;;;;31.72;49.07;100471.63;1460949;97;21115;-86
2021/06/12 11:23:05;;;;;;;5.17;3.72;;;;;;;31.86;49.22;100469.36;1460683;98;21118;-88
2021/06/12 11:25:35;;;;;;;6.22;3.70;;;;;;;31.99;46.25;100466.91;1458400;98;21358;-86
2021/06/12 11:28:23;;;;;;;5.87;3.95;;;;;;;32.00;46.61;100460.12;1459790;98;21220;-87
2021/06/12 11:30:52;;;;;;;7.70;4.55;;;;;;;32.00;45.73;100455.93;1462673;97;21105;-85
2021/06/12 11:33:20;;;;;;;7.78;4.28;;;;;;;32.09;45.56;100447.89;1474401;96;21048;-86
2021/06/12 11:35:58;;;;;;;5.83;3.90;;;;;;;32.24;45.90;100444.37;1528825;90;21079;-88